createdAt,value
2022-12-19T00:00:26.739Z,7.80
2022-12-19T00:01:26.891Z,8.90
2022-12-19T00:02:26.816Z,7.70
2022-12-19T00:03:26.876Z,8.20
2022-12-19T00:04:26.717Z,8.80
2022-12-19T00:05:26.689Z,8.50
2022-12-19T00:06:26.684Z,9.10
2022-12-19T00:07:26.669Z,7.90
2022-12-19T00:08:26.668Z,8.10
2022-12-19T00:09:26.677Z,9.80
2022-12-19T00:10:26.647Z,7.80
2022-12-19T00:11:26.620Z,9.40
2022-12-19T00:12:26.615Z,9.80
2022-12-19T00:13:26.654Z,9.50
2022-12-19T00:14:26.609Z,8.60
2022-12-19T00:15:26.585Z,8.80
2022-12-19T00:16:26.659Z,8.70
2022-12-19T00:17:26.563Z,9.50
2022-12-19T00:18:26.560Z,9.50
2022-12-19T00:19:26.569Z,10.00
2022-12-19T00:20:26.529Z,10.60
2022-12-19T00:21:26.528Z,10.60
2022-12-19T00:22:26.514Z,9.90
2022-12-19T00:23:26.507Z,9.90
2022-12-19T00:24:26.490Z,10.70
2022-12-19T00:25:26.485Z,10.70
2022-12-19T00:26:26.472Z,10.20
2022-12-19T00:27:26.458Z,9.20
2022-12-19T00:28:26.458Z,11.60
2022-12-19T00:29:26.453Z,9.20
2022-12-19T00:30:26.422Z,9.40
2022-12-19T00:31:26.443Z,11.10
2022-12-19T00:32:26.397Z,8.70
2022-12-19T00:33:26.391Z,9.20
2022-12-19T00:34:26.396Z,9.40
2022-12-19T00:35:26.371Z,8.70
2022-12-19T00:36:26.363Z,9.30
2022-12-19T00:37:26.350Z,9.10
2022-12-19T00:38:26.347Z,9.30
2022-12-19T00:39:26.343Z,9.90
2022-12-19T00:40:26.319Z,10.30
2022-12-19T00:41:26.305Z,9.50
2022-12-19T00:42:26.298Z,8.60
2022-12-19T00:43:26.283Z,8.90
2022-12-19T00:44:26.294Z,10.10
2022-12-19T00:45:26.314Z,9.60
2022-12-19T00:46:26.250Z,9.40
2022-12-19T00:47:26.243Z,9.80
2022-12-19T00:48:26.232Z,8.80
2022-12-19T00:49:26.229Z,9.60
2022-12-19T00:50:26.224Z,9.80
2022-12-19T00:51:26.208Z,9.80
2022-12-19T00:52:26.210Z,9.60
2022-12-19T00:53:26.180Z,9.90
2022-12-19T00:54:26.225Z,10.70
2022-12-19T00:55:26.180Z,9.20
2022-12-19T00:56:26.156Z,9.80
2022-12-19T00:57:26.136Z,10.50
2022-12-19T00:58:26.127Z,9.40
2022-12-19T00:59:26.736Z,9.20
2022-12-19T01:00:26.128Z,8.90
2022-12-19T01:01:26.203Z,9.20
2022-12-19T01:02:26.236Z,9.40
2022-12-19T01:03:26.080Z,10.30
2022-12-19T01:04:28.561Z,8.80
2022-12-19T01:05:26.070Z,9.00
2022-12-19T01:06:26.052Z,9.50
2022-12-19T01:07:26.027Z,9.90
2022-12-19T01:08:26.016Z,8.90
2022-12-19T01:09:26.028Z,8.90
2022-12-19T01:10:26.002Z,8.90
2022-12-19T01:11:26.011Z,8.50
2022-12-19T01:12:25.991Z,9.40
2022-12-19T01:13:25.966Z,10.70
2022-12-19T01:14:25.954Z,8.30
2022-12-19T01:15:25.952Z,9.50
2022-12-19T01:16:25.978Z,9.20
2022-12-19T01:17:25.949Z,9.00
2022-12-19T01:18:25.915Z,8.60
2022-12-19T01:19:25.902Z,8.40
2022-12-19T01:20:29.514Z,8.50
2022-12-19T01:21:25.875Z,9.00
2022-12-19T01:22:25.863Z,8.40
2022-12-19T01:23:25.852Z,9.00
2022-12-19T01:24:25.850Z,9.10
2022-12-19T01:25:25.857Z,7.70
2022-12-19T01:26:25.828Z,9.90
2022-12-19T01:27:25.834Z,9.00
2022-12-19T01:28:25.811Z,8.70
2022-12-19T01:29:25.794Z,8.00
2022-12-19T01:30:26.064Z,8.40
2022-12-19T01:31:25.808Z,8.40
2022-12-19T01:32:25.786Z,7.60
2022-12-19T01:33:25.771Z,8.30
2022-12-19T01:34:25.752Z,8.40
2022-12-19T01:35:25.733Z,9.80
2022-12-19T01:36:25.719Z,10.50
2022-12-19T01:37:25.730Z,8.50
2022-12-19T01:38:25.700Z,7.70
2022-12-19T01:39:25.694Z,8.70
2022-12-19T01:40:25.689Z,9.20
2022-12-19T01:41:25.675Z,7.90
2022-12-19T01:42:25.651Z,7.50
2022-12-19T01:43:25.668Z,8.60
2022-12-19T01:44:25.629Z,8.70
2022-12-19T01:45:30.391Z,8.60
2022-12-19T01:46:26.638Z,8.50
2022-12-19T01:47:25.607Z,8.80
2022-12-19T01:48:25.609Z,8.00
2022-12-19T01:49:25.579Z,9.10
2022-12-19T01:50:25.571Z,8.50
2022-12-19T01:51:25.562Z,7.80
2022-12-19T01:52:25.549Z,8.50
2022-12-19T01:53:25.557Z,7.90
2022-12-19T01:54:25.542Z,7.50
2022-12-19T01:55:25.516Z,7.70
2022-12-19T01:56:25.486Z,8.30
2022-12-19T01:57:25.471Z,8.30
2022-12-19T01:58:25.479Z,7.10
2022-12-19T01:59:25.444Z,7.90
2022-12-19T02:00:25.453Z,9.50
2022-12-19T02:01:25.546Z,8.70
2022-12-19T02:02:25.467Z,8.10
2022-12-19T02:03:25.443Z,8.30
2022-12-19T02:04:25.405Z,7.30
2022-12-19T02:05:25.383Z,8.40
2022-12-19T02:06:25.379Z,8.50
2022-12-19T02:07:25.363Z,9.00
2022-12-19T02:08:25.382Z,8.50
2022-12-19T02:09:25.366Z,7.80
2022-12-19T02:10:25.336Z,8.70
2022-12-19T02:11:25.333Z,9.30
2022-12-19T02:12:25.316Z,9.00
2022-12-19T02:13:25.328Z,8.10
2022-12-19T02:14:25.303Z,9.10
2022-12-19T02:15:25.276Z,9.50
2022-12-19T02:16:25.310Z,8.80
2022-12-19T02:17:25.268Z,8.60
2022-12-19T02:18:25.280Z,7.90
2022-12-19T02:19:25.245Z,8.40
2022-12-19T02:20:25.232Z,8.80
2022-12-19T02:21:25.229Z,8.60
2022-12-19T02:22:25.214Z,8.90
2022-12-19T02:23:25.206Z,7.90
2022-12-19T02:24:25.208Z,8.50
2022-12-19T02:25:25.182Z,8.30
2022-12-19T02:26:25.168Z,8.70
2022-12-19T02:27:25.160Z,8.60
2022-12-19T02:28:25.151Z,9.30
2022-12-19T02:29:25.159Z,8.60
2022-12-19T02:30:25.127Z,9.00
2022-12-19T02:31:25.150Z,8.40
2022-12-19T02:32:25.105Z,8.90
2022-12-19T02:33:25.110Z,7.80
2022-12-19T02:34:25.107Z,9.50
2022-12-19T02:35:25.089Z,8.80
2022-12-19T02:36:25.071Z,8.70
2022-12-19T02:37:25.053Z,8.70
2022-12-19T02:38:25.053Z,8.60
2022-12-19T02:39:25.064Z,9.60
2022-12-19T02:40:25.054Z,9.30
2022-12-19T02:41:25.016Z,8.20
2022-12-19T02:42:25.025Z,8.20
2022-12-19T02:43:24.995Z,9.20
2022-12-19T02:44:24.985Z,8.90
2022-12-19T02:45:28.583Z,9.30
2022-12-19T02:46:25.006Z,8.10
2022-12-19T02:47:24.957Z,8.30
2022-12-19T02:48:24.951Z,9.20
2022-12-19T02:49:30.711Z,8.60
2022-12-19T02:50:25.956Z,8.80
2022-12-19T02:51:24.940Z,9.20
2022-12-19T02:52:24.914Z,7.60
2022-12-19T02:53:24.925Z,8.20
2022-12-19T02:54:24.915Z,9.10
2022-12-19T02:55:24.883Z,7.70
2022-12-19T02:56:24.879Z,7.70
2022-12-19T02:57:24.881Z,8.80
2022-12-19T02:58:24.849Z,8.40
2022-12-19T02:59:24.832Z,7.20
2022-12-19T03:00:24.845Z,7.80
2022-12-19T03:01:24.923Z,7.60
2022-12-19T03:02:24.926Z,8.60
2022-12-19T03:03:24.873Z,7.30
2022-12-19T03:04:24.810Z,7.70
2022-12-19T03:05:24.794Z,7.30
2022-12-19T03:06:24.791Z,8.60
2022-12-19T03:07:24.751Z,8.80
2022-12-19T03:08:24.749Z,8.40
2022-12-19T03:09:24.743Z,7.20
2022-12-19T03:10:24.783Z,7.60
2022-12-19T03:11:24.722Z,7.40
2022-12-19T03:12:24.759Z,8.10
2022-12-19T03:13:24.692Z,7.30
2022-12-19T03:14:24.684Z,8.50
2022-12-19T03:15:24.704Z,8.30
2022-12-19T03:16:24.699Z,7.70
2022-12-19T03:17:24.736Z,8.10
2022-12-19T03:18:24.640Z,8.10
2022-12-19T03:19:24.642Z,8.70
2022-12-19T03:20:24.695Z,7.40
2022-12-19T03:21:24.611Z,7.70
2022-12-19T03:22:31.642Z,8.60
2022-12-19T03:23:24.594Z,7.60
2022-12-19T03:24:24.573Z,8.70
2022-12-19T03:25:24.591Z,7.80
2022-12-19T03:26:24.572Z,7.90
2022-12-19T03:27:24.556Z,7.10
2022-12-19T03:28:24.551Z,7.90
2022-12-19T03:29:24.554Z,8.40
2022-12-19T03:30:24.522Z,9.30
2022-12-19T03:31:24.564Z,8.90
2022-12-19T03:32:24.524Z,7.90
2022-12-19T03:33:24.494Z,7.90
2022-12-19T03:34:24.498Z,7.50
2022-12-19T03:35:24.479Z,7.50
2022-12-19T03:36:24.494Z,7.30
2022-12-19T03:37:24.478Z,10.00
2022-12-19T03:38:24.447Z,11.40
2022-12-19T03:39:24.457Z,8.70
2022-12-19T03:40:24.435Z,8.10
2022-12-19T03:41:24.405Z,7.00
2022-12-19T03:42:24.406Z,7.40
2022-12-19T03:43:24.396Z,6.90
2022-12-19T03:44:24.401Z,8.30
2022-12-19T03:45:24.366Z,7.60
2022-12-19T03:46:24.377Z,7.10
2022-12-19T03:47:24.350Z,7.80
2022-12-19T03:48:24.348Z,7.80
2022-12-19T03:49:24.336Z,7.20
2022-12-19T03:50:24.308Z,7.30
2022-12-19T03:51:24.324Z,8.60
2022-12-19T03:52:24.318Z,7.30
2022-12-19T03:53:24.287Z,7.60
2022-12-19T03:54:24.268Z,7.90
2022-12-19T03:55:24.270Z,6.60
2022-12-19T03:56:24.248Z,8.10
2022-12-19T03:57:24.256Z,7.30
2022-12-19T03:58:24.253Z,7.20
2022-12-19T03:59:24.240Z,7.40
2022-12-19T04:00:24.210Z,8.30
2022-12-19T04:01:24.292Z,7.60
2022-12-19T04:02:24.358Z,8.30
2022-12-19T04:03:24.209Z,8.60
2022-12-19T04:04:24.203Z,8.00
2022-12-19T04:05:24.173Z,8.00
2022-12-19T04:06:24.163Z,7.60
2022-12-19T04:07:24.131Z,7.60
2022-12-19T04:08:24.170Z,7.40
2022-12-19T04:09:24.140Z,7.40
2022-12-19T04:10:24.098Z,8.00
2022-12-19T04:11:24.093Z,7.50
2022-12-19T04:12:24.116Z,7.50
2022-12-19T04:13:24.110Z,7.20
2022-12-19T04:14:24.098Z,8.10
2022-12-19T04:15:24.047Z,7.80
2022-12-19T04:16:24.058Z,8.80
2022-12-19T04:17:24.032Z,7.60
2022-12-19T04:18:24.056Z,8.50
2022-12-19T04:19:24.034Z,8.10
2022-12-19T04:20:24.008Z,8.10
2022-12-19T04:21:23.986Z,8.60
2022-12-19T04:22:23.985Z,8.60
2022-12-19T04:23:23.986Z,7.20
2022-12-19T04:24:23.964Z,7.60
2022-12-19T04:25:29.041Z,8.40
2022-12-19T04:26:24.937Z,8.00
2022-12-19T04:27:23.929Z,7.90
2022-12-19T04:28:23.922Z,8.70
2022-12-19T04:29:23.919Z,7.80
2022-12-19T04:30:23.904Z,7.60
2022-12-19T04:31:23.965Z,9.20
2022-12-19T04:32:23.867Z,7.60
2022-12-19T04:33:23.881Z,7.90
2022-12-19T04:34:23.856Z,9.20
2022-12-19T04:35:23.856Z,8.50
2022-12-19T04:36:23.823Z,7.80
2022-12-19T04:37:23.816Z,8.50
2022-12-19T04:38:23.802Z,7.80
2022-12-19T04:39:23.806Z,7.50
2022-12-19T04:40:23.797Z,8.10
2022-12-19T04:41:23.831Z,14.60
2022-12-19T04:42:23.778Z,11.80
2022-12-19T04:43:23.761Z,10.90
2022-12-19T04:44:23.760Z,10.70
2022-12-19T04:45:23.741Z,11.40
2022-12-19T04:46:23.816Z,10.30
2022-12-19T04:47:23.748Z,9.40
2022-12-19T04:48:23.758Z,9.90
2022-12-19T04:49:23.725Z,9.50
2022-12-19T04:50:23.676Z,9.80
2022-12-19T04:51:23.667Z,10.20
2022-12-19T04:52:23.695Z,9.50
2022-12-19T04:53:23.684Z,9.30
2022-12-19T04:54:23.659Z,9.40
2022-12-19T04:55:23.624Z,9.20
2022-12-19T04:56:23.679Z,10.10
2022-12-19T04:57:23.607Z,9.90
2022-12-19T04:58:23.618Z,10.20
2022-12-19T04:59:23.609Z,11.20
2022-12-19T05:00:23.577Z,9.80
2022-12-19T05:01:23.693Z,10.30
2022-12-19T05:02:23.771Z,9.70
2022-12-19T05:03:23.607Z,9.30
2022-12-19T05:04:23.607Z,9.00
2022-12-19T05:05:23.570Z,9.30
2022-12-19T05:06:23.513Z,10.20
2022-12-19T05:07:23.528Z,8.80
2022-12-19T05:08:23.493Z,9.70
2022-12-19T05:09:23.533Z,9.80
2022-12-19T05:10:23.589Z,10.50
2022-12-19T05:11:23.484Z,8.60
2022-12-19T05:12:23.503Z,9.80
2022-12-19T05:13:23.435Z,8.90
2022-12-19T05:14:23.501Z,8.70
2022-12-19T05:15:23.466Z,8.60
2022-12-19T05:16:23.484Z,9.40
2022-12-19T05:17:23.594Z,8.60
2022-12-19T05:18:23.395Z,8.90
2022-12-19T05:19:23.419Z,9.30
2022-12-19T05:20:23.382Z,8.30
2022-12-19T05:21:23.400Z,9.00
2022-12-19T05:22:23.337Z,7.80
2022-12-19T05:23:23.329Z,7.60
2022-12-19T05:24:23.314Z,8.60
2022-12-19T05:25:23.340Z,8.20
2022-12-19T05:26:23.337Z,8.60
2022-12-19T05:27:23.315Z,9.10
2022-12-19T05:28:23.276Z,8.40
2022-12-19T05:29:23.264Z,8.10
2022-12-19T05:30:23.282Z,7.90
2022-12-19T05:31:23.348Z,8.10
2022-12-19T05:32:23.439Z,7.80
2022-12-19T05:33:23.465Z,8.60
2022-12-19T05:34:23.234Z,8.90
2022-12-19T05:35:23.217Z,8.60
2022-12-19T05:36:26.471Z,8.30
2022-12-19T05:37:24.179Z,9.40
2022-12-19T05:38:23.160Z,9.00
2022-12-19T05:39:23.192Z,8.50
2022-12-19T05:40:23.184Z,9.00
2022-12-19T05:41:23.215Z,8.70
2022-12-19T05:42:23.138Z,9.10
2022-12-19T05:43:23.110Z,8.00
2022-12-19T05:44:23.114Z,8.30
2022-12-19T05:45:23.100Z,8.80
2022-12-19T05:46:24.242Z,9.50
2022-12-19T05:47:23.079Z,8.00
2022-12-19T05:48:23.065Z,8.90
2022-12-19T05:49:23.040Z,8.00
2022-12-19T05:50:23.033Z,8.20
2022-12-19T05:51:23.050Z,8.60
2022-12-19T05:52:23.830Z,9.40
2022-12-19T05:53:26.097Z,9.00
2022-12-19T05:54:23.691Z,9.60
2022-12-19T05:55:24.131Z,11.60
2022-12-19T05:56:23.288Z,13.40
2022-12-19T05:57:22.957Z,13.00
2022-12-19T05:58:22.966Z,13.40
2022-12-19T05:59:22.966Z,12.30
2022-12-19T06:00:22.942Z,12.00
2022-12-19T06:01:23.044Z,10.70
2022-12-19T06:02:23.053Z,11.70
2022-12-19T06:03:23.795Z,11.30
2022-12-19T06:04:22.918Z,9.20
2022-12-19T06:05:22.945Z,9.60
2022-12-19T06:06:22.887Z,9.40
2022-12-19T06:07:24.067Z,9.20
2022-12-19T06:08:22.857Z,8.40
2022-12-19T06:09:22.834Z,9.30
2022-12-19T06:10:23.003Z,8.80
2022-12-19T06:11:23.822Z,8.80
2022-12-19T06:12:23.276Z,9.00
2022-12-19T06:13:25.104Z,9.40
2022-12-19T06:14:23.698Z,8.80
2022-12-19T06:15:22.782Z,8.70
2022-12-19T06:16:22.839Z,8.50
2022-12-19T06:17:23.381Z,8.60
2022-12-19T06:18:23.596Z,9.50
2022-12-19T06:19:23.586Z,8.90
2022-12-19T06:20:23.538Z,9.20
2022-12-19T06:21:22.884Z,9.70
2022-12-19T06:22:22.940Z,9.20
2022-12-19T06:23:23.319Z,8.90
2022-12-19T06:24:23.451Z,9.60
2022-12-19T06:25:23.608Z,9.30
2022-12-19T06:26:22.656Z,9.50
2022-12-19T06:27:22.660Z,9.00
2022-12-19T06:28:22.630Z,10.10
2022-12-19T06:29:22.624Z,8.90
2022-12-19T06:30:22.614Z,9.00
2022-12-19T06:31:22.662Z,9.80
2022-12-19T06:32:22.603Z,9.30
2022-12-19T06:33:22.616Z,8.70
2022-12-19T06:34:55.106Z,9.70
2022-12-19T06:35:23.551Z,9.00
2022-12-19T06:36:22.547Z,9.00
2022-12-19T06:37:22.557Z,9.50
2022-12-19T06:38:22.527Z,9.20
2022-12-19T06:39:22.512Z,9.50
2022-12-19T06:40:22.509Z,9.40
2022-12-19T06:41:22.502Z,10.20
2022-12-19T06:42:22.530Z,10.00
2022-12-19T06:43:22.500Z,10.10
2022-12-19T06:44:22.478Z,9.80
2022-12-19T06:45:22.524Z,10.40
2022-12-19T06:46:22.460Z,10.10
2022-12-19T06:47:22.445Z,10.20
2022-12-19T06:48:22.445Z,8.80
2022-12-19T06:49:22.401Z,9.40
2022-12-19T06:50:22.409Z,10.10
2022-12-19T06:51:22.393Z,10.50
2022-12-19T06:52:22.486Z,10.10
2022-12-19T06:53:22.380Z,8.90
2022-12-19T06:54:22.360Z,9.80
2022-12-19T06:55:22.347Z,9.20
2022-12-19T06:56:22.332Z,9.80
2022-12-19T06:57:22.322Z,9.50
2022-12-19T06:58:24.406Z,10.20
2022-12-19T06:59:22.319Z,10.70
2022-12-19T07:00:22.316Z,10.10
2022-12-19T07:01:22.467Z,10.10
2022-12-19T07:02:22.342Z,10.20
2022-12-19T07:03:22.348Z,10.50
2022-12-19T07:04:22.243Z,9.70
2022-12-19T07:05:22.269Z,8.90
2022-12-19T07:06:22.226Z,10.60
2022-12-19T07:07:22.227Z,10.50
2022-12-19T07:08:22.230Z,9.90
2022-12-19T07:09:22.254Z,9.60
2022-12-19T07:10:22.223Z,11.50
2022-12-19T07:11:22.219Z,11.10
2022-12-19T07:12:22.211Z,11.50
2022-12-19T07:13:22.176Z,11.10
2022-12-19T07:14:22.151Z,10.20
2022-12-19T07:15:22.128Z,10.50
2022-12-19T07:16:22.177Z,10.60
2022-12-19T07:17:22.156Z,9.60
2022-12-19T07:18:22.135Z,10.90
2022-12-19T07:19:22.262Z,10.30
2022-12-19T07:20:22.086Z,9.40
2022-12-19T07:21:22.098Z,10.10
2022-12-19T07:22:22.059Z,11.10
2022-12-19T07:23:22.050Z,10.50
2022-12-19T07:24:22.049Z,10.70
2022-12-19T07:25:22.045Z,10.70
2022-12-19T07:26:22.016Z,9.30
2022-12-19T07:27:22.003Z,10.90
2022-12-19T07:28:22.000Z,11.30
2022-12-19T07:29:22.018Z,10.70
2022-12-19T07:30:21.982Z,10.10
2022-12-19T07:31:22.021Z,10.00
2022-12-19T07:32:21.976Z,10.30
2022-12-19T07:33:22.333Z,10.90
2022-12-19T07:34:22.156Z,11.20
2022-12-19T07:35:21.955Z,10.80
2022-12-19T07:36:21.908Z,11.50
2022-12-19T07:37:21.937Z,11.60
2022-12-19T07:38:21.938Z,10.00
2022-12-19T07:39:21.931Z,11.70
2022-12-19T07:40:21.876Z,11.70
2022-12-19T07:41:21.873Z,11.90
2022-12-19T07:42:21.859Z,11.30
2022-12-19T07:43:21.971Z,11.90
2022-12-19T07:44:21.852Z,12.20
2022-12-19T07:45:21.822Z,12.10
2022-12-19T07:46:21.902Z,11.60
2022-12-19T07:47:21.787Z,11.40
2022-12-19T07:48:21.787Z,11.20
2022-12-19T07:49:22.956Z,11.00
2022-12-19T07:50:21.768Z,11.90
2022-12-19T07:51:21.758Z,12.40
2022-12-19T07:52:21.743Z,12.10
2022-12-19T07:53:21.755Z,11.10
2022-12-19T07:54:21.738Z,11.60
2022-12-19T07:55:21.704Z,11.20
2022-12-19T07:56:21.717Z,12.70
2022-12-19T07:57:21.686Z,11.70
2022-12-19T07:58:21.680Z,11.50
2022-12-19T07:59:27.321Z,12.00
2022-12-19T08:00:22.653Z,12.70
2022-12-19T08:01:21.779Z,13.20
2022-12-19T08:02:21.730Z,14.20
2022-12-19T08:03:21.652Z,14.50
2022-12-19T08:04:21.604Z,14.80
2022-12-19T08:05:22.036Z,13.60
2022-12-19T08:06:21.602Z,12.10
2022-12-19T08:07:21.579Z,13.40
2022-12-19T08:08:21.596Z,12.20
2022-12-19T08:09:21.549Z,13.60
2022-12-19T08:10:21.551Z,13.20
2022-12-19T08:11:21.556Z,13.00
2022-12-19T08:12:21.532Z,12.80
2022-12-19T08:13:21.507Z,13.20
2022-12-19T08:14:21.507Z,13.40
2022-12-19T08:15:21.503Z,11.90
2022-12-19T08:16:21.541Z,12.80
2022-12-19T08:17:21.816Z,12.30
2022-12-19T08:18:21.455Z,13.30
2022-12-19T08:19:25.903Z,12.80
2022-12-19T08:20:22.442Z,12.90
2022-12-19T08:21:21.438Z,13.80
2022-12-19T08:22:21.437Z,12.20
2022-12-19T08:23:21.421Z,13.60
2022-12-19T08:24:21.389Z,11.80
2022-12-19T08:25:21.405Z,14.60
2022-12-19T08:26:21.367Z,13.60
2022-12-19T08:27:21.363Z,13.30
2022-12-19T08:28:21.386Z,12.80
2022-12-19T08:29:21.342Z,14.50
2022-12-19T08:30:21.350Z,13.30
2022-12-19T08:31:21.371Z,13.10
2022-12-19T08:32:21.903Z,13.10
2022-12-19T08:33:21.299Z,14.40
2022-12-19T08:34:21.333Z,13.40
2022-12-19T08:35:21.286Z,12.30
2022-12-19T08:36:21.268Z,13.90
2022-12-19T08:37:21.250Z,16.10
2022-12-19T08:38:21.275Z,13.90
2022-12-19T08:39:21.245Z,13.40
2022-12-19T08:40:21.229Z,13.40
2022-12-19T08:41:21.213Z,13.30
2022-12-19T08:42:21.209Z,12.30
2022-12-19T08:43:21.205Z,13.10
2022-12-19T08:44:21.228Z,13.30
2022-12-19T08:45:21.224Z,12.70
2022-12-19T08:46:21.309Z,15.10
2022-12-19T08:47:21.155Z,14.00
2022-12-19T08:48:21.146Z,14.80
2022-12-19T08:49:21.152Z,14.20
2022-12-19T08:50:21.132Z,13.70
2022-12-19T08:51:21.120Z,14.10
2022-12-19T08:52:21.097Z,14.20
2022-12-19T08:53:25.982Z,13.40
2022-12-19T08:54:22.101Z,13.40
2022-12-19T08:55:21.117Z,13.60
2022-12-19T08:56:21.055Z,14.40
2022-12-19T08:57:21.071Z,13.20
2022-12-19T08:58:21.039Z,14.00
2022-12-19T08:59:30.414Z,15.20
2022-12-19T09:00:22.019Z,14.00
2022-12-19T09:01:21.230Z,13.00
2022-12-19T09:02:21.154Z,13.50
2022-12-19T09:03:21.197Z,14.50
2022-12-19T09:05:51.242Z,14.60
2022-12-19T09:05:58.358Z,14.20
2022-12-19T09:06:22.030Z,13.90
2022-12-19T09:07:20.995Z,15.30
2022-12-19T09:08:20.970Z,15.30
2022-12-19T09:09:29.673Z,15.30
2022-12-19T09:10:20.949Z,18.00
2022-12-19T09:11:20.915Z,16.10
2022-12-19T09:12:20.902Z,15.90
2022-12-19T09:13:20.915Z,17.00
2022-12-19T09:14:21.675Z,17.20
2022-12-19T09:15:20.871Z,16.80
2022-12-19T09:16:20.944Z,16.40
2022-12-19T09:17:20.918Z,15.80
2022-12-19T09:18:20.874Z,16.40
2022-12-19T09:19:20.820Z,15.30
2022-12-19T09:20:23.354Z,13.60
2022-12-19T09:21:20.798Z,15.80
2022-12-19T09:22:20.793Z,15.70
2022-12-19T09:24:32.769Z,15.30
2022-12-19T09:25:32.767Z,15.40
2022-12-19T09:26:32.926Z,14.40
2022-12-19T09:27:42.490Z,14.60
2022-12-19T09:28:33.729Z,14.70
2022-12-19T09:29:35.506Z,13.70
2022-12-19T09:30:32.791Z,14.30
2022-12-19T09:31:32.756Z,15.30
2022-12-19T09:32:32.730Z,15.00
2022-12-19T09:33:35.501Z,14.20
2022-12-19T09:34:37.644Z,15.80
2022-12-19T09:35:33.687Z,15.70
2022-12-19T09:36:32.650Z,13.70
2022-12-19T09:37:32.641Z,13.20
2022-12-19T09:38:32.645Z,14.40
2022-12-19T09:39:33.688Z,14.30
2022-12-19T09:40:32.674Z,13.60
2022-12-19T09:41:32.595Z,15.60
2022-12-19T09:42:32.578Z,15.20
2022-12-19T09:43:39.625Z,14.70
2022-12-19T09:44:33.583Z,15.50
2022-12-19T09:45:33.117Z,15.70
2022-12-19T09:46:32.587Z,16.40
2022-12-19T09:47:32.549Z,16.30
2022-12-19T09:48:32.593Z,18.40
2022-12-19T09:49:32.509Z,15.50
2022-12-19T09:50:32.560Z,16.20
2022-12-19T09:51:32.506Z,16.40
2022-12-19T09:52:33.122Z,16.10
2022-12-19T09:53:32.471Z,15.60
2022-12-19T09:54:32.451Z,16.20
2022-12-19T09:55:32.468Z,15.90
2022-12-19T09:56:34.020Z,15.90
2022-12-19T09:57:33.449Z,16.20
2022-12-19T09:58:32.442Z,17.00
2022-12-19T09:59:41.562Z,18.30
2022-12-19T10:00:33.414Z,16.20
2022-12-19T10:01:32.594Z,17.60
2022-12-19T10:02:32.597Z,16.80
2022-12-19T10:03:39.803Z,16.30
2022-12-19T10:04:33.356Z,16.60
2022-12-19T10:06:37.189Z,17.00
2022-12-19T10:07:07.940Z,15.50
2022-12-19T10:07:53.337Z,15.50
2022-12-19T10:08:33.322Z,15.30
2022-12-19T10:10:34.055Z,16.50
2022-12-19T10:12:38.001Z,16.10
2022-12-19T10:12:42.259Z,15.90
2022-12-19T10:12:44.271Z,15.80
2022-12-19T10:13:33.328Z,15.70
2022-12-19T10:14:32.245Z,14.80
2022-12-19T10:15:32.271Z,15.60
2022-12-19T10:16:32.273Z,16.80
2022-12-19T10:17:32.223Z,16.20
2022-12-19T10:18:32.237Z,15.20
2022-12-19T10:19:32.185Z,16.00
2022-12-19T10:20:32.208Z,15.10
2022-12-19T10:22:07.653Z,14.40
2022-12-19T10:22:33.164Z,15.60
2022-12-19T10:23:32.140Z,15.10
2022-12-19T10:24:35.201Z,15.10
2022-12-19T10:25:32.162Z,15.50
2022-12-19T10:26:32.114Z,15.30
2022-12-19T10:27:32.113Z,16.40
2022-12-19T10:28:32.090Z,16.20
2022-12-19T10:29:32.078Z,15.10
2022-12-19T10:30:32.373Z,15.30
2022-12-19T10:31:32.080Z,15.10
2022-12-19T10:32:32.048Z,14.70
2022-12-19T10:33:32.037Z,15.40
2022-12-19T10:34:32.061Z,14.60
2022-12-19T10:35:32.039Z,15.30
2022-12-19T10:37:11.947Z,14.50
2022-12-19T10:37:42.366Z,15.00
2022-12-19T10:38:32.996Z,15.70
2022-12-19T10:39:31.997Z,14.90
2022-12-19T10:40:32.039Z,15.80
2022-12-19T10:41:32.183Z,14.20
2022-12-19T10:42:32.002Z,14.30
2022-12-19T10:43:35.669Z,14.10
2022-12-19T10:44:32.914Z,15.50
2022-12-19T10:45:31.926Z,15.10
2022-12-19T10:46:32.007Z,15.40
2022-12-19T10:47:31.909Z,15.80
2022-12-19T10:48:31.909Z,16.00
2022-12-19T10:49:32.000Z,14.50
2022-12-19T10:50:31.913Z,13.90
2022-12-19T10:51:31.879Z,15.10
2022-12-19T10:52:31.835Z,14.50
2022-12-19T10:53:31.834Z,15.60
2022-12-19T10:54:33.757Z,15.60
2022-12-19T10:55:31.825Z,14.60
2022-12-19T10:56:37.146Z,14.50
2022-12-19T10:57:32.884Z,14.90
2022-12-19T10:58:31.804Z,15.30
2022-12-19T10:59:31.799Z,15.20
2022-12-19T11:00:33.049Z,15.00
2022-12-19T11:01:31.894Z,16.40
2022-12-19T11:02:31.839Z,16.10
2022-12-19T11:03:31.825Z,17.50
2022-12-19T11:04:32.722Z,16.00
2022-12-19T11:05:31.750Z,16.50
2022-12-19T11:06:31.687Z,16.10
2022-12-19T11:07:31.777Z,15.00
2022-12-19T11:08:31.786Z,16.00
2022-12-19T11:09:31.686Z,14.70
2022-12-19T11:12:36.469Z,15.00
2022-12-19T11:14:32.068Z,15.00
2022-12-19T11:16:38.279Z,14.50
2022-12-19T11:18:13.476Z,15.00
2022-12-19T11:18:41.567Z,15.20
2022-12-19T11:19:23.334Z,14.60
2022-12-19T11:21:17.100Z,14.30
2022-12-19T11:23:54.215Z,14.20
2022-12-19T11:29:17.973Z,16.00
2022-12-19T11:29:19.313Z,14.90
2022-12-19T11:29:37.894Z,15.30
2022-12-19T11:29:45.591Z,15.40
2022-12-19T11:30:36.476Z,14.40
2022-12-19T11:30:37.378Z,16.30
2022-12-19T11:30:42.986Z,14.30
2022-12-19T11:30:44.320Z,13.60
2022-12-19T11:30:44.320Z,15.20
2022-12-19T11:30:47.827Z,14.50
2022-12-19T11:30:48.003Z,14.30
2022-12-19T11:31:46.600Z,15.10
2022-12-19T11:32:40.584Z,14.20
2022-12-19T11:33:32.499Z,13.30
2022-12-19T11:34:31.384Z,14.20
2022-12-19T11:35:36.746Z,15.00
2022-12-19T11:36:32.477Z,14.70
2022-12-19T11:37:31.399Z,15.50
2022-12-19T11:38:31.361Z,15.40
2022-12-19T11:39:31.337Z,16.00
2022-12-19T11:40:31.312Z,15.60
2022-12-19T11:41:31.300Z,14.80
2022-12-19T11:42:31.306Z,14.20
2022-12-19T11:43:47.176Z,15.90
2022-12-19T11:44:32.308Z,15.60
2022-12-19T11:45:31.271Z,14.50
2022-12-19T11:46:31.267Z,14.40
2022-12-19T11:47:31.237Z,12.70
2022-12-19T11:48:31.236Z,14.00
2022-12-19T11:49:31.290Z,13.30
2022-12-19T11:50:31.325Z,13.30
2022-12-19T11:51:31.255Z,13.20
2022-12-19T11:53:32.234Z,13.30
2022-12-19T11:54:31.277Z,13.10
2022-12-19T11:55:31.162Z,14.00
2022-12-19T11:56:31.148Z,16.10
2022-12-19T11:57:31.167Z,13.10
2022-12-19T11:58:31.108Z,14.10
2022-12-19T11:59:31.106Z,13.70
2022-12-19T12:00:31.115Z,13.30
2022-12-19T12:01:31.109Z,12.90
2022-12-19T12:02:31.119Z,12.80
2022-12-19T12:03:31.176Z,13.00
2022-12-19T12:04:31.195Z,12.70
2022-12-19T12:05:31.095Z,12.30
2022-12-19T12:06:31.726Z,13.60
2022-12-19T12:08:25.497Z,12.80
2022-12-19T12:09:47.682Z,14.00
2022-12-19T12:13:22.298Z,14.70
2022-12-19T12:13:59.363Z,13.80
2022-12-19T12:19:33.813Z,13.70
2022-12-19T12:19:53.715Z,14.50
2022-12-19T12:20:43.331Z,13.70
2022-12-19T12:21:14.286Z,13.30
2022-12-19T12:28:51.528Z,14.80
2022-12-19T12:29:34.497Z,13.60
2022-12-19T12:31:05.471Z,17.10
2022-12-19T12:31:07.462Z,14.70
2022-12-19T12:31:08.449Z,16.00
2022-12-19T12:31:11.913Z,14.90
2022-12-19T12:31:20.597Z,16.50
2022-12-19T12:31:21.234Z,16.00
2022-12-19T12:31:21.672Z,15.10
2022-12-19T12:31:46.050Z,14.80
2022-12-19T12:31:49.898Z,14.10
2022-12-19T12:31:52.578Z,16.40
2022-12-19T12:31:53.069Z,13.60
2022-12-19T12:32:03.188Z,14.70
2022-12-19T12:32:04.207Z,15.10
2022-12-19T12:32:04.348Z,14.90
2022-12-19T12:35:43.569Z,14.10
2022-12-19T12:35:45.387Z,14.80
2022-12-19T12:35:52.125Z,13.80
2022-12-19T12:35:52.361Z,13.70
2022-12-19T12:38:16.669Z,13.40
2022-12-19T12:38:32.546Z,13.10
2022-12-19T12:39:33.709Z,12.60
2022-12-19T12:40:30.724Z,12.40
2022-12-19T12:41:30.688Z,12.80
2022-12-19T12:42:30.709Z,12.50
2022-12-19T12:43:30.629Z,13.60
2022-12-19T12:44:33.428Z,13.80
2022-12-19T12:45:30.651Z,13.00
2022-12-19T12:46:30.625Z,13.80
2022-12-19T12:47:30.620Z,13.90
2022-12-19T12:48:30.594Z,13.60
2022-12-19T12:49:30.580Z,12.30
2022-12-19T12:50:30.736Z,14.30
2022-12-19T12:51:31.610Z,12.90
2022-12-19T12:52:30.558Z,14.20
2022-12-19T12:53:30.548Z,12.20
2022-12-19T12:54:30.553Z,14.70
2022-12-19T12:55:30.654Z,13.20
2022-12-19T12:56:30.507Z,12.90
2022-12-19T12:57:30.520Z,14.60
2022-12-19T12:58:30.479Z,13.70
2022-12-19T12:59:30.457Z,12.90
2022-12-19T13:00:30.492Z,14.20
2022-12-19T13:01:30.594Z,14.60
2022-12-19T13:02:30.527Z,14.10
2022-12-19T13:03:30.474Z,13.80
2022-12-19T13:04:30.407Z,13.90
2022-12-19T13:05:30.402Z,12.80
2022-12-19T13:06:30.390Z,13.50
2022-12-19T13:07:30.386Z,13.60
2022-12-19T13:08:30.378Z,12.70
2022-12-19T13:09:30.432Z,13.30
2022-12-19T13:10:30.410Z,14.30